createdAt,value
2018-03-26T00:01:54.381Z,50.90
2018-03-26T00:04:22.739Z,51.00
2018-03-26T00:06:50.483Z,50.90
2018-03-26T00:09:18.050Z,51.10
2018-03-26T00:11:47.288Z,51.20
2018-03-26T00:14:15.462Z,51.20
2018-03-26T00:16:43.014Z,51.20
2018-03-26T00:19:11.159Z,51.20
2018-03-26T00:21:38.714Z,51.20
2018-03-26T00:24:06.239Z,51.30
2018-03-26T00:26:33.832Z,51.30
2018-03-26T00:29:01.486Z,51.40
2018-03-26T00:31:29.005Z,51.40
2018-03-26T00:33:57.314Z,51.60
2018-03-26T00:36:25.380Z,51.60
2018-03-26T00:38:52.931Z,51.70
2018-03-26T00:41:20.476Z,51.60
2018-03-26T00:43:48.344Z,51.70
2018-03-26T00:46:17.464Z,51.90
2018-03-26T00:48:44.984Z,51.90
2018-03-26T00:51:12.560Z,52.00
2018-03-26T00:53:43.935Z,52.10
2018-03-26T00:56:11.967Z,52.10
2018-03-26T00:58:40.290Z,52.30
2018-03-26T01:01:07.839Z,52.20
2018-03-26T01:03:35.415Z,52.30
2018-03-26T01:06:03.006Z,52.50
2018-03-26T01:08:31.416Z,52.50
2018-03-26T01:10:59.011Z,52.50
2018-03-26T01:13:27.307Z,52.60
2018-03-26T01:15:55.350Z,52.60
2018-03-26T01:18:22.898Z,52.60
2018-03-26T01:20:50.465Z,52.80
2018-03-26T01:23:18.026Z,52.70
2018-03-26T01:25:46.464Z,52.70
2018-03-26T01:28:15.374Z,52.90
2018-03-26T01:30:42.941Z,52.90
2018-03-26T01:33:11.247Z,52.90
2018-03-26T01:35:38.774Z,52.90
2018-03-26T01:38:07.113Z,52.80
2018-03-26T01:40:35.235Z,52.80
2018-03-26T01:43:02.795Z,52.90
2018-03-26T01:45:30.338Z,52.80
2018-03-26T01:47:57.917Z,52.80
2018-03-26T01:50:27.470Z,52.80
2018-03-26T01:52:55.443Z,52.80
2018-03-26T01:55:22.965Z,52.80
2018-03-26T01:57:50.603Z,52.80
2018-03-26T02:00:18.394Z,52.80
2018-03-26T02:02:45.921Z,52.70
2018-03-26T02:05:13.730Z,52.80
2018-03-26T02:07:41.300Z,52.80
2018-03-26T02:10:08.855Z,52.90
2018-03-26T02:12:36.391Z,52.70
2018-03-26T02:15:04.480Z,52.80
2018-03-26T02:17:32.027Z,52.70
2018-03-26T02:19:59.709Z,52.70
2018-03-26T02:22:31.725Z,52.70
2018-03-26T02:25:00.044Z,52.80
2018-03-26T02:27:28.623Z,52.70
2018-03-26T02:29:56.865Z,52.80
2018-03-26T02:32:25.915Z,52.80
2018-03-26T02:34:53.958Z,52.70
2018-03-26T02:37:21.520Z,52.80
2018-03-26T02:39:49.107Z,52.80
2018-03-26T02:42:16.951Z,52.80
2018-03-26T02:44:45.094Z,52.80
2018-03-26T02:47:13.386Z,53.00
2018-03-26T02:49:40.924Z,53.00
2018-03-26T02:52:09.030Z,52.90
2018-03-26T02:54:36.579Z,53.00
2018-03-26T02:57:04.131Z,52.90
2018-03-26T02:59:31.681Z,52.90
2018-03-26T03:01:59.971Z,52.90
2018-03-26T03:04:27.521Z,52.90
2018-03-26T03:06:55.062Z,52.90
2018-03-26T03:09:23.287Z,52.90
2018-03-26T03:11:51.588Z,53.10
2018-03-26T03:14:19.135Z,52.90
2018-03-26T03:16:46.663Z,53.10
2018-03-26T03:19:14.265Z,53.10
2018-03-26T03:21:41.809Z,53.10
2018-03-26T03:24:09.591Z,53.10
2018-03-26T03:26:37.142Z,53.60
2018-03-26T03:29:05.573Z,53.10
2018-03-26T03:31:33.095Z,53.10
2018-03-26T03:34:01.668Z,53.60
2018-03-26T03:36:30.514Z,53.20
2018-03-26T03:38:59.643Z,53.00
2018-03-26T03:41:27.196Z,53.00
2018-03-26T03:43:55.602Z,53.10
2018-03-26T03:46:23.166Z,53.20
2018-03-26T03:48:50.724Z,53.20
2018-03-26T03:51:18.849Z,53.20
2018-03-26T03:53:47.170Z,53.20
2018-03-26T03:56:15.331Z,53.20
2018-03-26T03:58:42.889Z,53.20
2018-03-26T04:01:10.443Z,53.20
2018-03-26T04:03:37.983Z,53.20
2018-03-26T04:06:06.291Z,53.20
2018-03-26T04:08:33.954Z,53.30
2018-03-26T04:11:01.528Z,53.20
2018-03-26T04:13:29.927Z,53.20
2018-03-26T04:15:57.459Z,53.20
2018-03-26T04:18:25.533Z,53.30
2018-03-26T04:20:53.079Z,53.40
2018-03-26T04:23:20.661Z,53.40
2018-03-26T04:25:49.514Z,53.50
2018-03-26T04:28:17.831Z,53.60
2018-03-26T04:30:45.940Z,53.50
2018-03-26T04:33:15.065Z,53.70
2018-03-26T04:35:42.638Z,53.70
2018-03-26T04:38:10.186Z,53.80
2018-03-26T04:40:38.234Z,53.80
2018-03-26T04:43:05.779Z,54.40
2018-03-26T04:45:33.318Z,53.80
2018-03-26T04:48:00.823Z,53.80
2018-03-26T04:50:30.034Z,53.80
2018-03-26T04:52:57.643Z,53.90
2018-03-26T04:55:26.022Z,53.90
2018-03-26T04:57:53.824Z,53.90
2018-03-26T05:00:21.404Z,54.10
2018-03-26T05:02:48.953Z,54.20
2018-03-26T05:05:16.477Z,54.20
2018-03-26T05:07:45.843Z,54.60
2018-03-26T05:10:13.404Z,55.00
2018-03-26T05:12:40.962Z,55.50
2018-03-26T05:15:09.190Z,55.60
2018-03-26T05:17:36.765Z,55.50
2018-03-26T05:20:04.323Z,55.40
2018-03-26T05:22:31.842Z,55.50
2018-03-26T05:24:59.436Z,56.50
2018-03-26T05:27:26.989Z,56.50
2018-03-26T05:29:55.035Z,56.30
2018-03-26T05:32:22.575Z,56.10
2018-03-26T05:34:50.175Z,55.90
2018-03-26T05:37:17.708Z,55.90
2018-03-26T05:39:45.959Z,55.80
2018-03-26T05:42:14.762Z,55.60
2018-03-26T05:44:42.353Z,55.50
2018-03-26T05:47:09.917Z,55.40
2018-03-26T05:49:38.735Z,55.30
2018-03-26T05:52:06.256Z,55.20
2018-03-26T05:54:35.182Z,55.00
2018-03-26T05:57:03.305Z,55.00
2018-03-26T05:59:31.061Z,54.90
2018-03-26T06:01:58.610Z,54.80
2018-03-26T06:04:26.483Z,54.90
2018-03-26T06:06:55.001Z,54.90
2018-03-26T06:09:22.571Z,54.90
2018-03-26T06:11:50.143Z,55.00
2018-03-26T06:14:17.676Z,55.00
2018-03-26T06:16:52.793Z,55.00
2018-03-26T06:19:20.522Z,55.00
2018-03-26T06:21:48.051Z,54.70
2018-03-26T06:24:16.344Z,54.70
2018-03-26T06:26:44.686Z,54.50
2018-03-26T06:29:12.237Z,55.10
2018-03-26T06:31:39.800Z,54.40
2018-03-26T06:34:08.115Z,54.40
2018-03-26T06:36:53.411Z,54.50
2018-03-26T06:39:21.556Z,54.50
2018-03-26T06:41:49.090Z,54.50
2018-03-26T06:44:17.168Z,54.60
2018-03-26T06:46:45.184Z,54.40
2018-03-26T06:49:12.771Z,54.50
2018-03-26T06:51:40.321Z,54.40
2018-03-26T06:54:09.466Z,54.30
2018-03-26T06:56:38.348Z,53.90
2018-03-26T06:59:06.103Z,54.10
2018-03-26T07:01:34.283Z,54.00
2018-03-26T07:04:01.823Z,53.90
2018-03-26T07:06:29.948Z,53.90
2018-03-26T07:08:57.514Z,54.10
2018-03-26T07:11:25.524Z,54.10
2018-03-26T07:13:53.062Z,54.00
2018-03-26T07:16:20.627Z,53.80
2018-03-26T07:18:48.183Z,54.00
2018-03-26T07:21:15.727Z,54.10
2018-03-26T07:23:43.287Z,53.80
2018-03-26T07:26:10.827Z,53.60
2018-03-26T07:28:39.147Z,53.50
2018-03-26T07:31:07.595Z,53.50
2018-03-26T07:33:36.022Z,53.50
2018-03-26T07:36:04.377Z,53.30
2018-03-26T07:38:32.036Z,53.20
2018-03-26T07:40:59.598Z,53.20
2018-03-26T07:43:27.125Z,53.10
2018-03-26T07:45:55.256Z,52.90
2018-03-26T07:48:22.988Z,52.90
2018-03-26T07:50:50.874Z,52.90
2018-03-26T07:53:18.420Z,52.60
2018-03-26T07:55:45.954Z,52.50
2018-03-26T07:58:14.132Z,52.50
2018-03-26T08:00:42.007Z,52.20
2018-03-26T08:03:09.566Z,51.80
2018-03-26T08:05:37.175Z,51.70
2018-03-26T08:08:05.195Z,51.50
2018-03-26T08:10:33.361Z,51.50
2018-03-26T08:13:01.364Z,51.10
2018-03-26T08:15:28.913Z,50.90
2018-03-26T08:17:56.483Z,50.70
2018-03-26T08:20:24.012Z,50.30
2018-03-26T08:22:51.575Z,50.90
2018-03-26T08:25:19.123Z,50.20
2018-03-26T08:27:46.699Z,51.00
2018-03-26T08:30:14.226Z,50.40
2018-03-26T08:32:42.229Z,50.40
2018-03-26T08:35:09.787Z,50.20
2018-03-26T08:37:37.302Z,50.20
2018-03-26T08:40:05.668Z,50.10
2018-03-26T08:42:33.185Z,50.30
2018-03-26T08:45:00.718Z,50.40
2018-03-26T08:47:29.240Z,50.20
2018-03-26T08:49:56.833Z,50.10
2018-03-26T08:52:25.679Z,50.00
2018-03-26T08:54:53.195Z,50.00
2018-03-26T08:57:20.770Z,49.90
2018-03-26T08:59:49.067Z,50.00
2018-03-26T09:02:16.662Z,49.90
2018-03-26T09:04:44.227Z,49.90
2018-03-26T09:07:12.878Z,50.20
2018-03-26T09:09:40.408Z,50.30
2018-03-26T09:12:07.982Z,50.20
2018-03-26T09:14:37.072Z,50.20
2018-03-26T09:17:05.498Z,50.00
2018-03-26T09:19:33.262Z,50.00
2018-03-26T09:22:00.915Z,49.80
2018-03-26T09:24:28.954Z,49.20
2018-03-26T09:26:57.550Z,49.60
2018-03-26T09:29:26.366Z,49.30
2018-03-26T09:31:54.026Z,49.30
2018-03-26T09:34:21.591Z,49.10
2018-03-26T09:36:49.616Z,48.80
2018-03-26T09:39:17.324Z,48.20
2018-03-26T09:41:45.468Z,47.90
2018-03-26T09:44:16.383Z,47.50
2018-03-26T09:46:44.035Z,47.10
2018-03-26T09:49:11.586Z,47.50
2018-03-26T09:51:39.144Z,47.70
2018-03-26T09:54:06.671Z,47.40
2018-03-26T09:56:34.852Z,47.50
2018-03-26T09:59:02.422Z,47.50
2018-03-26T10:01:31.795Z,47.50
2018-03-26T10:03:59.342Z,47.90
2018-03-26T10:06:28.856Z,47.30
2018-03-26T10:08:56.386Z,47.30
2018-03-26T10:11:24.524Z,47.60
2018-03-26T10:13:52.059Z,47.40
2018-03-26T10:16:19.581Z,47.40
2018-03-26T10:18:47.905Z,47.10
2018-03-26T10:21:16.262Z,47.10
2018-03-26T10:23:43.817Z,46.50
2018-03-26T10:26:12.198Z,46.10
2018-03-26T10:28:39.763Z,46.40
2018-03-26T10:31:07.324Z,47.00
2018-03-26T10:33:35.325Z,47.10
2018-03-26T10:36:02.909Z,47.20
2018-03-26T10:38:31.127Z,47.70
2018-03-26T10:40:58.647Z,48.10
2018-03-26T10:43:26.700Z,48.00
2018-03-26T10:45:54.257Z,47.90
2018-03-26T10:48:21.797Z,47.60
2018-03-26T10:50:49.360Z,48.20
2018-03-26T10:53:17.640Z,48.10
2018-03-26T10:55:45.909Z,48.30
2018-03-26T10:58:13.426Z,47.80
2018-03-26T11:00:42.508Z,47.80
2018-03-26T11:03:10.793Z,47.30
2018-03-26T11:05:38.337Z,47.30
2018-03-26T11:08:06.172Z,47.20
2018-03-26T11:10:33.975Z,47.00
2018-03-26T11:13:03.009Z,47.20
2018-03-26T11:15:31.182Z,47.20
2018-03-26T11:17:58.719Z,46.40
2018-03-26T11:20:27.516Z,44.50
2018-03-26T11:22:55.966Z,44.50
2018-03-26T11:25:23.458Z,44.70
2018-03-26T11:27:51.743Z,44.70
2018-03-26T11:30:20.879Z,44.90
2018-03-26T11:32:48.388Z,44.90
2018-03-26T11:35:15.958Z,45.20
2018-03-26T11:37:43.494Z,45.60
2018-03-26T11:40:11.013Z,46.00
2018-03-26T11:42:38.568Z,45.60
2018-03-26T11:45:06.390Z,45.50
2018-03-26T11:47:34.330Z,45.50
2018-03-26T11:50:02.792Z,44.60
2018-03-26T11:52:30.899Z,44.60
2018-03-26T11:54:58.928Z,44.70
2018-03-26T11:57:26.547Z,45.10
2018-03-26T11:59:54.110Z,44.90
2018-03-26T12:02:21.653Z,44.70
2018-03-26T12:04:49.248Z,45.00
2018-03-26T12:07:17.358Z,44.60
2018-03-26T12:09:45.735Z,44.40
2018-03-26T12:12:13.268Z,44.50
2018-03-26T12:14:40.792Z,44.80
2018-03-26T12:17:09.216Z,44.10
2018-03-26T12:22:39.138Z,44.80
2018-03-26T12:25:17.840Z,45.00
2018-03-26T12:27:57.156Z,45.40
2018-03-26T12:30:26.768Z,45.20
2018-03-26T12:32:56.323Z,45.10
2018-03-26T12:35:35.842Z,45.10
2018-03-26T12:38:03.389Z,44.80
2018-03-26T12:40:42.768Z,43.80
2018-03-26T12:43:11.851Z,43.40
2018-03-26T12:45:51.116Z,42.50
2018-03-26T12:48:19.568Z,42.00
2018-03-26T12:50:59.024Z,40.00
2018-03-26T12:53:26.558Z,39.40
2018-03-26T12:55:54.149Z,39.90
2018-03-26T12:58:33.950Z,40.40
2018-03-26T13:01:14.059Z,42.60
2018-03-26T13:03:41.594Z,42.60
2018-03-26T13:06:10.358Z,42.50
2018-03-26T13:08:37.903Z,41.80
2018-03-26T13:11:07.631Z,41.80
2018-03-26T13:13:35.890Z,41.80
2018-03-26T13:16:04.199Z,40.90
2018-03-26T13:18:33.060Z,40.90
2018-03-26T13:21:01.349Z,40.40
2018-03-26T13:23:28.881Z,40.40
2018-03-26T13:25:56.476Z,40.60
2018-03-26T13:28:24.620Z,40.50
2018-03-26T13:30:52.515Z,40.60
2018-03-26T13:33:20.042Z,40.00
2018-03-26T13:35:47.572Z,40.10
2018-03-26T13:38:15.878Z,40.20
2018-03-26T13:40:43.403Z,40.40
2018-03-26T13:43:11.035Z,39.70
2018-03-26T13:45:38.582Z,39.70
2018-03-26T13:48:06.928Z,39.90
2018-03-26T13:50:34.930Z,40.00
2018-03-26T13:53:03.286Z,39.90
2018-03-26T13:55:31.590Z,39.80
2018-03-26T13:57:59.118Z,39.80
2018-03-26T14:00:26.675Z,40.10
2018-03-26T14:02:54.599Z,39.70
2018-03-26T14:05:22.261Z,40.40
2018-03-26T14:07:49.792Z,40.70
2018-03-26T14:10:30.615Z,41.30
2018-03-26T14:13:10.483Z,41.30
2018-03-26T14:15:49.878Z,41.10
2018-03-26T14:18:17.425Z,40.70
2018-03-26T14:20:45.105Z,40.60
2018-03-26T14:23:12.670Z,40.80
2018-03-26T14:25:41.086Z,40.90
2018-03-26T14:28:08.600Z,40.90
2018-03-26T14:30:36.565Z,40.80
2018-03-26T14:33:04.684Z,40.90
2018-03-26T14:35:47.132Z,42.40
2018-03-26T14:38:16.406Z,42.30
2018-03-26T14:40:44.526Z,42.90
2018-03-26T14:43:12.123Z,42.70
2018-03-26T14:45:39.623Z,42.90
2018-03-26T14:48:07.205Z,43.10
2018-03-26T14:50:35.328Z,43.00
2018-03-26T14:53:02.877Z,42.90
2018-03-26T14:55:30.465Z,41.80
2018-03-26T14:57:58.061Z,41.50
2018-03-26T15:00:26.512Z,41.70
2018-03-26T15:02:55.448Z,41.10
2018-03-26T15:05:22.981Z,41.10
2018-03-26T15:07:50.550Z,40.90
2018-03-26T15:10:18.077Z,41.10
2018-03-26T15:12:46.537Z,41.10
2018-03-26T15:15:14.958Z,41.50
2018-03-26T15:17:42.488Z,41.40
2018-03-26T15:20:11.780Z,41.30
2018-03-26T15:22:39.420Z,41.20
2018-03-26T15:25:06.947Z,41.30
2018-03-26T15:27:35.133Z,41.10
2018-03-26T15:30:02.667Z,41.60
2018-03-26T15:32:30.777Z,41.50
2018-03-26T15:34:58.297Z,41.50
2018-03-26T15:37:26.467Z,41.70
2018-03-26T15:39:54.024Z,41.60
2018-03-26T15:42:21.591Z,41.40
2018-03-26T15:44:49.135Z,41.20
2018-03-26T15:47:17.512Z,41.40
2018-03-26T15:49:45.837Z,41.40
2018-03-26T15:52:13.380Z,41.40
2018-03-26T15:54:40.919Z,41.20
2018-03-26T15:57:09.741Z,42.00
2018-03-26T15:59:37.269Z,41.90
2018-03-26T16:02:04.338Z,42.00
2018-03-26T16:04:31.887Z,43.00
2018-03-26T16:06:59.432Z,43.20
2018-03-26T16:09:26.986Z,43.30
2018-03-26T16:11:55.479Z,43.40
2018-03-26T16:14:23.010Z,43.30
2018-03-26T16:16:50.824Z,42.30
2018-03-26T16:19:18.355Z,42.40
2018-03-26T16:21:46.689Z,42.20
2018-03-26T16:24:15.927Z,42.20
2018-03-26T16:26:43.491Z,42.10
2018-03-26T16:29:11.767Z,43.60
2018-03-26T16:31:39.895Z,43.50
2018-03-26T16:34:07.441Z,43.80
2018-03-26T16:36:35.206Z,44.20
2018-03-26T16:39:02.779Z,44.90
2018-03-26T16:41:42.143Z,45.30
2018-03-26T16:44:09.707Z,45.70
2018-03-26T16:46:38.738Z,46.30
2018-03-26T16:49:06.281Z,46.30
2018-03-26T16:51:33.839Z,46.20
2018-03-26T16:54:02.255Z,46.40
2018-03-26T16:56:30.961Z,46.30
2018-03-26T16:58:58.499Z,46.40
2018-03-26T17:01:26.065Z,46.60
2018-03-26T17:03:53.762Z,46.90
2018-03-26T17:06:21.331Z,46.80
2018-03-26T17:08:49.626Z,46.60
2018-03-26T17:11:17.943Z,46.60
2018-03-26T17:13:46.193Z,46.50
2018-03-26T17:16:14.983Z,46.70
2018-03-26T17:18:42.939Z,46.70
2018-03-26T17:21:10.495Z,46.60
2018-03-26T17:23:38.033Z,47.10
2018-03-26T17:26:06.514Z,46.90
2018-03-26T17:28:34.037Z,47.00
2018-03-26T17:31:01.562Z,47.30
2018-03-26T17:33:29.119Z,47.30
2018-03-26T17:35:56.634Z,47.30
2018-03-26T17:38:24.214Z,47.10
2018-03-26T17:40:51.741Z,47.10
2018-03-26T17:43:19.272Z,47.20
2018-03-26T17:45:47.774Z,47.30
2018-03-26T17:48:15.318Z,47.10
2018-03-26T17:50:43.011Z,47.00
2018-03-26T17:53:10.770Z,46.70
2018-03-26T17:55:38.301Z,46.70
2018-03-26T17:58:05.815Z,46.50
2018-03-26T18:00:33.383Z,46.80
2018-03-26T18:03:00.944Z,46.80
2018-03-26T18:05:30.474Z,46.30
2018-03-26T18:07:58.058Z,46.30
2018-03-26T18:10:26.791Z,46.10
2018-03-26T18:12:54.469Z,46.00
2018-03-26T18:15:22.033Z,46.30
2018-03-26T18:17:50.320Z,46.80
2018-03-26T18:20:17.826Z,46.70
2018-03-26T18:22:45.358Z,46.80
2018-03-26T18:25:13.239Z,46.60
2018-03-26T18:27:40.803Z,46.80
2018-03-26T18:30:08.555Z,46.60
2018-03-26T18:32:36.613Z,46.10
2018-03-26T18:35:04.152Z,45.80
2018-03-26T18:37:32.518Z,46.30
2018-03-26T18:40:00.003Z,46.20
2018-03-26T18:42:28.932Z,46.20
2018-03-26T18:44:56.499Z,46.20
2018-03-26T18:47:24.060Z,46.00
2018-03-26T18:49:51.604Z,45.90
2018-03-26T18:52:19.384Z,45.70
2018-03-26T18:54:47.515Z,45.60
2018-03-26T18:57:16.460Z,45.50
2018-03-26T18:59:44.548Z,45.40
2018-03-26T19:02:12.181Z,45.50
2018-03-26T19:04:39.924Z,45.30
2018-03-26T19:07:07.478Z,45.40
2018-03-26T19:09:35.715Z,46.00
2018-03-26T19:12:03.282Z,45.30
2018-03-26T19:14:31.597Z,44.80
2018-03-26T19:16:59.122Z,44.80
2018-03-26T19:19:26.702Z,44.70
2018-03-26T19:21:54.226Z,44.70
2018-03-26T19:24:21.769Z,44.70
2018-03-26T19:26:49.303Z,44.70
2018-03-26T19:29:17.076Z,44.50
2018-03-26T19:31:45.952Z,44.50
2018-03-26T19:34:13.472Z,44.50
2018-03-26T19:36:42.262Z,44.60
2018-03-26T19:39:09.822Z,44.60
2018-03-26T19:41:38.441Z,44.50
2018-03-26T19:44:06.919Z,44.50
2018-03-26T19:46:34.647Z,44.40
2018-03-26T19:49:02.429Z,44.30
2018-03-26T19:51:30.218Z,44.40
2018-03-26T19:53:57.804Z,44.50
2018-03-26T19:56:25.564Z,44.50
2018-03-26T19:58:53.263Z,44.50
2018-03-26T20:01:22.807Z,44.60
2018-03-26T20:03:50.423Z,44.50
2018-03-26T20:06:18.001Z,44.60
2018-03-26T20:08:46.063Z,44.00
2018-03-26T20:11:14.365Z,43.80
2018-03-26T20:13:41.902Z,43.80
2018-03-26T20:16:11.164Z,44.00
2018-03-26T20:18:39.055Z,44.00
2018-03-26T20:21:06.647Z,44.00
2018-03-26T20:23:34.280Z,44.00
2018-03-26T20:26:02.443Z,44.10
2018-03-26T20:28:30.678Z,44.10
2018-03-26T20:30:58.403Z,44.30
2018-03-26T20:33:27.612Z,44.30
2018-03-26T20:35:55.352Z,44.30
2018-03-26T20:38:23.658Z,45.20
2018-03-26T20:40:52.012Z,45.30
2018-03-26T20:43:20.584Z,45.60
2018-03-26T20:45:48.103Z,45.60
2018-03-26T20:48:17.257Z,46.00
2018-03-26T20:50:47.394Z,46.60
2018-03-26T20:53:15.715Z,46.50
2018-03-26T20:55:43.422Z,46.40
2018-03-26T20:58:11.959Z,46.90
2018-03-26T21:00:39.872Z,46.90
2018-03-26T21:03:07.411Z,47.10
2018-03-26T21:05:36.040Z,47.60
2018-03-26T21:08:03.720Z,47.80
2018-03-26T21:10:32.564Z,48.50
2018-03-26T21:13:00.104Z,48.40
2018-03-26T21:15:27.629Z,48.50
2018-03-26T21:17:55.957Z,48.60
2018-03-26T21:20:23.857Z,48.80
2018-03-26T21:22:51.631Z,48.90
2018-03-26T21:25:20.129Z,49.30
2018-03-26T21:27:48.462Z,49.60
2018-03-26T21:30:16.173Z,50.20
2018-03-26T21:32:44.735Z,50.80
2018-03-26T21:35:12.289Z,51.10
2018-03-26T21:37:40.052Z,51.20
2018-03-26T21:40:07.624Z,51.50
2018-03-26T21:42:36.164Z,51.30
2018-03-26T21:45:04.016Z,51.20
2018-03-26T21:47:31.516Z,51.30
2018-03-26T21:49:59.054Z,51.30
2018-03-26T21:52:28.647Z,51.30
2018-03-26T21:54:56.207Z,51.30
2018-03-26T21:57:24.236Z,51.20
2018-03-26T21:59:51.903Z,51.30
2018-03-26T22:02:19.666Z,51.30
2018-03-26T22:04:47.830Z,51.20
2018-03-26T22:07:15.353Z,51.50
2018-03-26T22:09:44.172Z,52.30
2018-03-26T22:12:11.692Z,52.30
2018-03-26T22:14:39.174Z,52.60
2018-03-26T22:17:06.708Z,52.70
2018-03-26T22:19:34.404Z,52.90
2018-03-26T22:22:03.295Z,52.80
2018-03-26T22:24:31.631Z,52.60
2018-03-26T22:26:59.258Z,52.60
2018-03-26T22:29:26.865Z,52.80
2018-03-26T22:31:55.862Z,53.00
2018-03-26T22:34:23.370Z,52.90
2018-03-26T22:36:50.870Z,53.00
2018-03-26T22:39:18.847Z,53.10
2018-03-26T22:41:46.571Z,53.20
2018-03-26T22:44:15.988Z,53.40
2018-03-26T22:46:43.821Z,53.70
2018-03-26T22:49:11.377Z,53.80
2018-03-26T22:51:38.921Z,53.90
2018-03-26T22:54:06.463Z,53.90
2018-03-26T22:56:35.317Z,54.00
2018-03-26T22:59:02.844Z,54.00
2018-03-26T23:01:30.491Z,54.30
2018-03-26T23:03:59.537Z,54.00
2018-03-26T23:06:29.418Z,53.90
2018-03-26T23:08:57.003Z,54.00
2018-03-26T23:11:25.019Z,54.60
2018-03-26T23:13:53.345Z,54.00
2018-03-26T23:16:20.953Z,54.00
2018-03-26T23:18:48.519Z,53.60
2018-03-26T23:21:16.852Z,53.70
2018-03-26T23:23:44.364Z,53.70
2018-03-26T23:26:13.431Z,53.40
2018-03-26T23:28:41.003Z,53.40
2018-03-26T23:31:08.574Z,53.30
2018-03-26T23:33:37.492Z,53.30
2018-03-26T23:36:05.889Z,53.20
2018-03-26T23:38:33.418Z,53.20
2018-03-26T23:41:02.050Z,53.40
2018-03-26T23:43:29.756Z,53.10
2018-03-26T23:45:58.039Z,53.20
2018-03-26T23:48:26.955Z,53.10
2018-03-26T23:50:54.997Z,53.30
2018-03-26T23:53:23.288Z,53.60
2018-03-26T23:55:50.830Z,53.60
2018-03-26T23:58:18.355Z,53.90
